sensor_id;sensor_type;location;lat;lon;timestamp;pressure;altitude;pressure_sealevel;temperature;humidity
64628;BME280;59036;50.960;0.314;2022-09-17T00:01:20;100363.90;;;8.68;48.82
64628;BME280;59036;50.960;0.314;2022-09-17T00:03:49;100360.26;;;8.51;49.26
64628;BME280;59036;50.960;0.314;2022-09-17T00:06:18;100357.23;;;8.02;48.72
64628;BME280;59036;50.960;0.314;2022-09-17T00:08:45;100361.22;;;8.85;48.20
64628;BME280;59036;50.960;0.314;2022-09-17T00:11:14;100367.55;;;8.52;48.67
64628;BME280;59036;50.960;0.314;2022-09-17T00:13:43;100361.87;;;8.58;48.07
64628;BME280;59036;50.960;0.314;2022-09-17T00:16:11;100360.59;;;8.66;47.98
64628;BME280;59036;50.960;0.314;2022-09-17T00:18:38;100359.39;;;8.21;49.01
64628;BME280;59036;50.960;0.314;2022-09-17T00:21:07;100360.46;;;8.16;49.09
64628;BME280;59036;50.960;0.314;2022-09-17T00:23:41;100362.74;;;7.90;49.77
64628;BME280;59036;50.960;0.314;2022-09-17T00:26:08;100366.29;;;8.10;49.32
64628;BME280;59036;50.960;0.314;2022-09-17T00:28:35;100357.27;;;7.98;49.59
64628;BME280;59036;50.960;0.314;2022-09-17T00:31:06;100359.19;;;7.68;49.86
64628;BME280;59036;50.960;0.314;2022-09-17T00:33:34;100356.83;;;8.33;49.29
64628;BME280;59036;50.960;0.314;2022-09-17T00:36:03;100358.18;;;7.83;49.69
64628;BME280;59036;50.960;0.314;2022-09-17T00:38:31;100363.63;;;7.14;50.80
64628;BME280;59036;50.960;0.314;2022-09-17T00:40:59;100373.87;;;7.03;51.47
64628;BME280;59036;50.960;0.314;2022-09-17T00:43:36;100365.97;;;7.62;50.95
64628;BME280;59036;50.960;0.314;2022-09-17T00:46:09;100362.76;;;7.45;51.50
64628;BME280;59036;50.960;0.314;2022-09-17T00:48:38;100357.51;;;7.03;51.46
64628;BME280;59036;50.960;0.314;2022-09-17T00:51:06;100360.65;;;7.09;51.51
64628;BME280;59036;50.960;0.314;2022-09-17T00:53:35;100354.81;;;7.79;51.48
64628;BME280;59036;50.960;0.314;2022-09-17T00:56:05;100356.55;;;8.00;50.11
64628;BME280;59036;50.960;0.314;2022-09-17T00:58:35;100357.66;;;7.57;49.95
64628;BME280;59036;50.960;0.314;2022-09-17T01:01:04;100364.73;;;7.08;51.30
64628;BME280;59036;50.960;0.314;2022-09-17T01:03:31;100364.49;;;7.21;51.31
64628;BME280;59036;50.960;0.314;2022-09-17T01:06:07;100363.76;;;7.53;51.57
64628;BME280;59036;50.960;0.314;2022-09-17T01:08:48;100360.08;;;7.46;51.11
64628;BME280;59036;50.960;0.314;2022-09-17T01:11:29;100359.16;;;7.50;50.96
64628;BME280;59036;50.960;0.314;2022-09-17T01:14:12;100354.11;;;7.68;50.31
64628;BME280;59036;50.960;0.314;2022-09-17T01:16:47;100358.92;;;7.39;51.20
64628;BME280;59036;50.960;0.314;2022-09-17T01:19:47;100358.93;;;7.39;50.21
64628;BME280;59036;50.960;0.314;2022-09-17T01:22:24;100359.63;;;7.88;50.02
64628;BME280;59036;50.960;0.314;2022-09-17T01:25:16;100350.09;;;8.20;48.93
64628;BME280;59036;50.960;0.314;2022-09-17T01:28:28;100349.46;;;8.32;49.44
64628;BME280;59036;50.960;0.314;2022-09-17T01:31:08;100358.04;;;7.75;49.90
64628;BME280;59036;50.960;0.314;2022-09-17T01:33:44;100361.86;;;7.34;51.13
64628;BME280;59036;50.960;0.314;2022-09-17T01:36:22;100363.85;;;8.06;50.30
64628;BME280;59036;50.960;0.314;2022-09-17T01:39:00;100371.83;;;7.78;49.37
64628;BME280;59036;50.960;0.314;2022-09-17T01:41:33;100373.49;;;7.54;49.63
64628;BME280;59036;50.960;0.314;2022-09-17T01:44:09;100365.85;;;8.44;48.37
64628;BME280;59036;50.960;0.314;2022-09-17T01:46:40;100360.51;;;7.49;48.85
64628;BME280;59036;50.960;0.314;2022-09-17T01:49:10;100366.13;;;8.27;48.66
64628;BME280;59036;50.960;0.314;2022-09-17T01:51:42;100370.53;;;7.85;50.10
64628;BME280;59036;50.960;0.314;2022-09-17T01:54:14;100378.50;;;7.21;50.23
64628;BME280;59036;50.960;0.314;2022-09-17T01:56:46;100382.86;;;6.57;52.08
64628;BME280;59036;50.960;0.314;2022-09-17T01:59:18;100384.69;;;7.23;51.30
64628;BME280;59036;50.960;0.314;2022-09-17T02:01:50;100384.37;;;6.48;52.58
64628;BME280;59036;50.960;0.314;2022-09-17T02:04:22;100387.33;;;7.18;51.21
64628;BME280;59036;50.960;0.314;2022-09-17T02:06:56;100395.44;;;6.36;52.24
64628;BME280;59036;50.960;0.314;2022-09-17T02:09:29;100390.03;;;7.43;50.49
64628;BME280;59036;50.960;0.314;2022-09-17T02:12:01;100389.56;;;7.58;49.72
64628;BME280;59036;50.960;0.314;2022-09-17T02:14:37;100397.19;;;6.77;51.26
64628;BME280;59036;50.960;0.314;2022-09-17T02:17:09;100391.27;;;7.41;50.16
64628;BME280;59036;50.960;0.314;2022-09-17T02:19:39;100388.53;;;7.33;50.44
64628;BME280;59036;50.960;0.314;2022-09-17T02:22:13;100385.56;;;7.10;51.55
64628;BME280;59036;50.960;0.314;2022-09-17T02:24:51;100389.65;;;7.44;51.23
64628;BME280;59036;50.960;0.314;2022-09-17T02:27:26;100385.18;;;7.39;51.00
64628;BME280;59036;50.960;0.314;2022-09-17T02:29:57;100384.80;;;7.53;50.13
64628;BME280;59036;50.960;0.314;2022-09-17T02:32:25;100387.40;;;6.81;51.46
64628;BME280;59036;50.960;0.314;2022-09-17T02:34:52;100388.06;;;7.63;49.82
64628;BME280;59036;50.960;0.314;2022-09-17T02:37:19;100394.71;;;7.70;50.65
64628;BME280;59036;50.960;0.314;2022-09-17T02:39:46;100399.16;;;7.20;51.23
64628;BME280;59036;50.960;0.314;2022-09-17T02:42:20;100388.27;;;7.53;50.43
64628;BME280;59036;50.960;0.314;2022-09-17T02:44:56;100386.15;;;7.89;49.47
64628;BME280;59036;50.960;0.314;2022-09-17T02:47:38;100397.13;;;8.32;48.88
64628;BME280;59036;50.960;0.314;2022-09-17T02:50:18;100402.15;;;6.69;52.10
64628;BME280;59036;50.960;0.314;2022-09-17T02:53:02;100400.36;;;8.03;49.61
64628;BME280;59036;50.960;0.314;2022-09-17T02:55:36;100400.61;;;8.07;49.08
64628;BME280;59036;50.960;0.314;2022-09-17T02:58:13;100397.40;;;8.39;48.46
64628;BME280;59036;50.960;0.314;2022-09-17T03:00:44;100399.39;;;8.16;48.83
64628;BME280;59036;50.960;0.314;2022-09-17T03:03:18;100409.26;;;8.12;48.85
64628;BME280;59036;50.960;0.314;2022-09-17T03:05:47;100408.86;;;6.93;51.31
64628;BME280;59036;50.960;0.314;2022-09-17T03:08:17;100403.11;;;8.52;49.77
64628;BME280;59036;50.960;0.314;2022-09-17T03:10:44;100403.03;;;7.91;49.78
64628;BME280;59036;50.960;0.314;2022-09-17T03:13:11;100408.69;;;7.39;50.62
64628;BME280;59036;50.960;0.314;2022-09-17T03:15:38;100411.41;;;7.27;51.69
64628;BME280;59036;50.960;0.314;2022-09-17T03:18:05;100412.81;;;6.60;53.45
64628;BME280;59036;50.960;0.314;2022-09-17T03:20:32;100409.00;;;6.76;53.42
64628;BME280;59036;50.960;0.314;2022-09-17T03:22:59;100402.54;;;7.22;52.20
64628;BME280;59036;50.960;0.314;2022-09-17T03:25:27;100399.32;;;7.66;51.86
64628;BME280;59036;50.960;0.314;2022-09-17T03:27:54;100402.59;;;8.01;50.39
64628;BME280;59036;50.960;0.314;2022-09-17T03:30:21;100405.83;;;7.25;52.47
64628;BME280;59036;50.960;0.314;2022-09-17T03:32:48;100405.97;;;7.08;52.29
64628;BME280;59036;50.960;0.314;2022-09-17T03:35:15;100413.84;;;6.39;54.78
64628;BME280;59036;50.960;0.314;2022-09-17T03:37:43;100415.54;;;6.12;55.80
64628;BME280;59036;50.960;0.314;2022-09-17T03:40:10;100409.79;;;6.34;55.40
64628;BME280;59036;50.960;0.314;2022-09-17T03:42:37;100406.79;;;7.01;53.85
64628;BME280;59036;50.960;0.314;2022-09-17T03:45:05;100408.83;;;6.75;54.23
64628;BME280;59036;50.960;0.314;2022-09-17T03:47:32;100402.45;;;6.56;54.79
64628;BME280;59036;50.960;0.314;2022-09-17T03:49:59;100398.63;;;6.80;54.50
64628;BME280;59036;50.960;0.314;2022-09-17T03:52:26;100402.15;;;6.67;54.74
64628;BME280;59036;50.960;0.314;2022-09-17T03:54:54;100404.28;;;6.28;55.69
64628;BME280;59036;50.960;0.314;2022-09-17T03:57:21;100400.68;;;6.74;55.25
64628;BME280;59036;50.960;0.314;2022-09-17T03:59:48;100397.84;;;6.51;55.16
64628;BME280;59036;50.960;0.314;2022-09-17T04:02:15;100396.90;;;6.16;56.39
64628;BME280;59036;50.960;0.314;2022-09-17T04:04:42;100394.10;;;6.35;55.80
64628;BME280;59036;50.960;0.314;2022-09-17T04:07:10;100393.87;;;6.29;56.10
64628;BME280;59036;50.960;0.314;2022-09-17T04:09:37;100390.10;;;6.21;56.34
64628;BME280;59036;50.960;0.314;2022-09-17T04:12:04;100389.67;;;6.61;55.43
64628;BME280;59036;50.960;0.314;2022-09-17T04:14:31;100393.11;;;5.97;57.29
64628;BME280;59036;50.960;0.314;2022-09-17T04:16:59;100391.93;;;5.91;57.59
64628;BME280;59036;50.960;0.314;2022-09-17T04:19:26;100393.63;;;5.86;57.53
64628;BME280;59036;50.960;0.314;2022-09-17T04:21:53;100395.00;;;6.07;57.12
64628;BME280;59036;50.960;0.314;2022-09-17T04:24:20;100399.18;;;6.16;57.13
64628;BME280;59036;50.960;0.314;2022-09-17T04:26:47;100401.32;;;5.72;57.94
64628;BME280;59036;50.960;0.314;2022-09-17T04:29:15;100406.77;;;6.12;57.21
64628;BME280;59036;50.960;0.314;2022-09-17T04:31:42;100408.21;;;5.95;56.63
64628;BME280;59036;50.960;0.314;2022-09-17T04:34:10;100408.03;;;6.23;55.99
64628;BME280;59036;50.960;0.314;2022-09-17T04:36:37;100406.29;;;7.02;54.57
64628;BME280;59036;50.960;0.314;2022-09-17T04:39:04;100408.32;;;6.65;55.23
64628;BME280;59036;50.960;0.314;2022-09-17T04:41:31;100412.26;;;5.60;56.96
64628;BME280;59036;50.960;0.314;2022-09-17T04:43:59;100410.39;;;5.59;56.02
64628;BME280;59036;50.960;0.314;2022-09-17T04:46:27;100406.02;;;6.83;53.69
64628;BME280;59036;50.960;0.314;2022-09-17T04:48:54;100409.02;;;5.42;57.93
64628;BME280;59036;50.960;0.314;2022-09-17T04:51:21;100409.16;;;5.91;57.72
64628;BME280;59036;50.960;0.314;2022-09-17T04:53:48;100411.29;;;5.74;56.85
64628;BME280;59036;50.960;0.314;2022-09-17T04:56:15;100416.67;;;6.05;57.06
64628;BME280;59036;50.960;0.314;2022-09-17T04:58:42;100415.25;;;5.79;57.64
64628;BME280;59036;50.960;0.314;2022-09-17T05:01:09;100417.43;;;5.73;58.88
64628;BME280;59036;50.960;0.314;2022-09-17T05:03:36;100416.92;;;6.17;57.28
64628;BME280;59036;50.960;0.314;2022-09-17T05:06:04;100416.79;;;5.61;59.01
64628;BME280;59036;50.960;0.314;2022-09-17T05:08:31;100418.13;;;5.72;58.83
64628;BME280;59036;50.960;0.314;2022-09-17T05:10:58;100412.65;;;6.09;57.52
64628;BME280;59036;50.960;0.314;2022-09-17T05:13:25;100410.78;;;6.27;56.69
64628;BME280;59036;50.960;0.314;2022-09-17T05:15:53;100411.73;;;5.90;57.69
64628;BME280;59036;50.960;0.314;2022-09-17T05:18:21;100412.38;;;5.56;58.52
64628;BME280;59036;50.960;0.314;2022-09-17T05:20:48;100412.61;;;5.69;57.96
64628;BME280;59036;50.960;0.314;2022-09-17T05:23:15;100420.32;;;5.71;58.74
64628;BME280;59036;50.960;0.314;2022-09-17T05:25:42;100418.24;;;5.65;59.28
64628;BME280;59036;50.960;0.314;2022-09-17T05:28:09;100417.10;;;5.76;58.49
64628;BME280;59036;50.960;0.314;2022-09-17T05:30:37;100420.47;;;5.70;59.12
64628;BME280;59036;50.960;0.314;2022-09-17T05:33:05;100420.99;;;5.19;59.79
64628;BME280;59036;50.960;0.314;2022-09-17T05:35:33;100424.97;;;5.99;58.12
64628;BME280;59036;50.960;0.314;2022-09-17T05:38:01;100427.57;;;5.89;58.25
64628;BME280;59036;50.960;0.314;2022-09-17T05:40:28;100427.86;;;5.95;57.56
64628;BME280;59036;50.960;0.314;2022-09-17T05:42:59;100425.57;;;6.18;57.17
64628;BME280;59036;50.960;0.314;2022-09-17T05:45:26;100428.23;;;5.81;58.50
64628;BME280;59036;50.960;0.314;2022-09-17T05:47:54;100425.96;;;5.83;57.81
64628;BME280;59036;50.960;0.314;2022-09-17T05:50:22;100429.61;;;4.52;60.34
64628;BME280;59036;50.960;0.314;2022-09-17T05:52:49;100432.61;;;5.32;58.77
64628;BME280;59036;50.960;0.314;2022-09-17T05:55:17;100427.49;;;6.15;58.56
64628;BME280;59036;50.960;0.314;2022-09-17T05:57:44;100429.37;;;5.97;57.78
64628;BME280;59036;50.960;0.314;2022-09-17T06:00:13;100433.24;;;6.92;55.77
64628;BME280;59036;50.960;0.314;2022-09-17T06:02:41;100439.98;;;6.38;56.30
64628;BME280;59036;50.960;0.314;2022-09-17T06:05:08;100444.86;;;5.67;57.80
64628;BME280;59036;50.960;0.314;2022-09-17T06:07:36;100441.65;;;5.29;58.65
64628;BME280;59036;50.960;0.314;2022-09-17T06:10:05;100448.79;;;5.88;58.50
64628;BME280;59036;50.960;0.314;2022-09-17T06:12:33;100448.39;;;5.58;59.37
64628;BME280;59036;50.960;0.314;2022-09-17T06:15:00;100453.73;;;5.62;58.79
64628;BME280;59036;50.960;0.314;2022-09-17T06:17:27;100456.65;;;5.70;59.10
64628;BME280;59036;50.960;0.314;2022-09-17T06:19:54;100455.61;;;6.34;58.15
64628;BME280;59036;50.960;0.314;2022-09-17T06:22:21;100452.96;;;5.65;58.86
64628;BME280;59036;50.960;0.314;2022-09-17T06:24:48;100453.39;;;5.39;59.48
64628;BME280;59036;50.960;0.314;2022-09-17T06:27:16;100455.32;;;5.27;59.98
64628;BME280;59036;50.960;0.314;2022-09-17T06:29:43;100458.15;;;4.64;62.12
64628;BME280;59036;50.960;0.314;2022-09-17T06:32:10;100458.03;;;5.43;59.86
64628;BME280;59036;50.960;0.314;2022-09-17T06:34:38;100462.24;;;5.80;60.06
64628;BME280;59036;50.960;0.314;2022-09-17T06:37:04;100461.19;;;5.91;59.07
64628;BME280;59036;50.960;0.314;2022-09-17T06:39:32;100460.26;;;6.58;57.36
64628;BME280;59036;50.960;0.314;2022-09-17T06:41:59;100459.06;;;6.02;58.49
64628;BME280;59036;50.960;0.314;2022-09-17T06:47:02;100460.81;;;6.73;58.94
64628;BME280;59036;50.960;0.314;2022-09-17T06:49:29;100464.68;;;5.21;61.06
64628;BME280;59036;50.960;0.314;2022-09-17T06:51:56;100464.53;;;5.60;59.82
64628;BME280;59036;50.960;0.314;2022-09-17T06:54:24;100464.38;;;5.57;60.78
64628;BME280;59036;50.960;0.314;2022-09-17T06:56:51;100462.41;;;6.00;60.22
64628;BME280;59036;50.960;0.314;2022-09-17T06:59:18;100464.59;;;5.91;59.45
64628;BME280;59036;50.960;0.314;2022-09-17T07:01:46;100461.97;;;5.19;61.03
64628;BME280;59036;50.960;0.314;2022-09-17T07:04:13;100464.92;;;6.84;58.49
64628;BME280;59036;50.960;0.314;2022-09-17T07:06:42;100464.48;;;6.25;58.42
64628;BME280;59036;50.960;0.314;2022-09-17T07:09:09;100472.22;;;5.92;59.38
64628;BME280;59036;50.960;0.314;2022-09-17T07:11:36;100471.90;;;6.49;58.71
64628;BME280;59036;50.960;0.314;2022-09-17T07:14:04;100472.69;;;6.38;58.31
64628;BME280;59036;50.960;0.314;2022-09-17T07:16:31;100471.70;;;6.74;57.35
64628;BME280;59036;50.960;0.314;2022-09-17T07:18:58;100469.24;;;7.04;56.40
64628;BME280;59036;50.960;0.314;2022-09-17T07:21:25;100474.37;;;7.25;57.34
64628;BME280;59036;50.960;0.314;2022-09-17T07:23:52;100467.79;;;7.57;56.09
64628;BME280;59036;50.960;0.314;2022-09-17T07:26:19;100472.23;;;6.19;58.73
64628;BME280;59036;50.960;0.314;2022-09-17T07:28:46;100471.13;;;7.26;56.34
64628;BME280;59036;50.960;0.314;2022-09-17T07:31:14;100472.61;;;7.30;57.14
64628;BME280;59036;50.960;0.314;2022-09-17T07:33:41;100471.12;;;6.87;57.44
64628;BME280;59036;50.960;0.314;2022-09-17T07:36:11;100463.87;;;7.27;57.06
64628;BME280;59036;50.960;0.314;2022-09-17T07:38:38;100460.49;;;8.37;55.25
64628;BME280;59036;50.960;0.314;2022-09-17T07:41:08;100463.89;;;6.95;57.72
64628;BME280;59036;50.960;0.314;2022-09-17T07:43:35;100459.71;;;7.45;56.65
64628;BME280;59036;50.960;0.314;2022-09-17T07:46:04;100460.51;;;8.43;54.02
64628;BME280;59036;50.960;0.314;2022-09-17T07:48:32;100455.43;;;8.40;53.94
64628;BME280;59036;50.960;0.314;2022-09-17T07:50:59;100458.59;;;7.43;55.24
64628;BME280;59036;50.960;0.314;2022-09-17T07:53:27;100458.38;;;8.13;54.23
64628;BME280;59036;50.960;0.314;2022-09-17T07:55:55;100458.29;;;8.51;53.10
64628;BME280;59036;50.960;0.314;2022-09-17T07:58:27;100457.05;;;8.11;53.34
64628;BME280;59036;50.960;0.314;2022-09-17T08:00:59;100457.65;;;8.73;52.75
64628;BME280;59036;50.960;0.314;2022-09-17T08:03:26;100453.81;;;9.62;52.22
64628;BME280;59036;50.960;0.314;2022-09-17T08:05:54;100456.38;;;9.57;51.76
64628;BME280;59036;50.960;0.314;2022-09-17T08:08:26;100464.08;;;9.40;50.65
64628;BME280;59036;50.960;0.314;2022-09-17T08:10:53;100462.78;;;9.53;50.61
64628;BME280;59036;50.960;0.314;2022-09-17T08:13:20;100467.04;;;9.31;50.87
64628;BME280;59036;50.960;0.314;2022-09-17T08:15:47;100464.44;;;9.16;50.98
64628;BME280;59036;50.960;0.314;2022-09-17T08:18:15;100465.68;;;10.23;49.63
64628;BME280;59036;50.960;0.314;2022-09-17T08:20:42;100467.98;;;9.60;50.73
64628;BME280;59036;50.960;0.314;2022-09-17T08:23:09;100469.30;;;10.14;49.13
64628;BME280;59036;50.960;0.314;2022-09-17T08:25:36;100472.45;;;10.30;48.48
64628;BME280;59036;50.960;0.314;2022-09-17T08:28:04;100474.93;;;10.09;49.05
64628;BME280;59036;50.960;0.314;2022-09-17T08:30:31;100476.02;;;10.07;51.85
64628;BME280;59036;50.960;0.314;2022-09-17T08:32:58;100478.15;;;9.98;49.33
64628;BME280;59036;50.960;0.314;2022-09-17T08:35:25;100481.36;;;10.42;48.44
64628;BME280;59036;50.960;0.314;2022-09-17T08:37:53;100485.88;;;9.89;49.90
64628;BME280;59036;50.960;0.314;2022-09-17T08:40:21;100485.25;;;9.78;50.94
64628;BME280;59036;50.960;0.314;2022-09-17T08:42:53;100489.41;;;10.43;49.43
64628;BME280;59036;50.960;0.314;2022-09-17T08:45:21;100486.33;;;10.27;49.89
64628;BME280;59036;50.960;0.314;2022-09-17T08:47:48;100485.74;;;10.58;48.49
64628;BME280;59036;50.960;0.314;2022-09-17T08:50:19;100485.30;;;10.90;48.27
64628;BME280;59036;50.960;0.314;2022-09-17T08:53:06;100489.19;;;10.71;48.30
64628;BME280;59036;50.960;0.314;2022-09-17T08:55:39;100488.76;;;10.04;50.82
64628;BME280;59036;50.960;0.314;2022-09-17T08:58:28;100495.71;;;10.30;48.58
64628;BME280;59036;50.960;0.314;2022-09-17T09:01:07;100498.12;;;10.62;48.03
64628;BME280;59036;50.960;0.314;2022-09-17T09:03:51;100498.34;;;11.37;47.10
64628;BME280;59036;50.960;0.314;2022-09-17T09:06:28;100493.98;;;10.49;47.62
64628;BME280;59036;50.960;0.314;2022-09-17T09:08:59;100493.09;;;11.02;47.22
64628;BME280;59036;50.960;0.314;2022-09-17T09:11:28;100486.94;;;11.83;45.00
64628;BME280;59036;50.960;0.314;2022-09-17T09:14:02;100484.08;;;12.49;43.84
64628;BME280;59036;50.960;0.314;2022-09-17T09:16:33;100492.07;;;10.73;46.40
64628;BME280;59036;50.960;0.314;2022-09-17T09:19:09;100493.80;;;10.98;46.32
64628;BME280;59036;50.960;0.314;2022-09-17T09:21:44;100492.22;;;12.11;44.49
64628;BME280;59036;50.960;0.314;2022-09-17T09:24:20;100495.12;;;11.73;44.50
64628;BME280;59036;50.960;0.314;2022-09-17T09:26:57;100496.36;;;11.04;45.53
64628;BME280;59036;50.960;0.314;2022-09-17T09:29:36;100504.56;;;10.92;45.90
64628;BME280;59036;50.960;0.314;2022-09-17T09:32:12;100503.21;;;10.63;46.78
64628;BME280;59036;50.960;0.314;2022-09-17T09:34:45;100499.87;;;10.65;46.81
64628;BME280;59036;50.960;0.314;2022-09-17T09:37:17;100499.39;;;10.89;47.23
64628;BME280;59036;50.960;0.314;2022-09-17T09:39:47;100499.86;;;10.63;47.61
64628;BME280;59036;50.960;0.314;2022-09-17T09:42:24;100495.78;;;10.10;48.15
64628;BME280;59036;50.960;0.314;2022-09-17T09:44:55;100503.08;;;10.88;47.79
64628;BME280;59036;50.960;0.314;2022-09-17T09:47:32;100499.25;;;10.66;46.25
64628;BME280;59036;50.960;0.314;2022-09-17T09:50:16;100496.15;;;9.93;47.09
64628;BME280;59036;50.960;0.314;2022-09-17T09:52:55;100497.35;;;11.19;45.42
64628;BME280;59036;50.960;0.314;2022-09-17T09:55:39;100486.11;;;11.02;45.57
64628;BME280;59036;50.960;0.314;2022-09-17T09:58:20;100490.25;;;11.07;45.52
64628;BME280;59036;50.960;0.314;2022-09-17T10:00:50;100493.80;;;11.03;46.62
64628;BME280;59036;50.960;0.314;2022-09-17T10:03:20;100489.36;;;11.58;45.18
64628;BME280;59036;50.960;0.314;2022-09-17T10:05:53;100483.58;;;12.37;45.10
64628;BME280;59036;50.960;0.314;2022-09-17T10:08:20;100483.98;;;12.23;42.59
64628;BME280;59036;50.960;0.314;2022-09-17T10:10:56;100485.34;;;12.14;42.91
64628;BME280;59036;50.960;0.314;2022-09-17T10:13:26;100485.08;;;11.68;43.22
64628;BME280;59036;50.960;0.314;2022-09-17T10:15:53;100479.02;;;11.48;43.24
64628;BME280;59036;50.960;0.314;2022-09-17T10:18:21;100487.67;;;11.81;45.20
64628;BME280;59036;50.960;0.314;2022-09-17T10:20:52;100488.23;;;11.09;43.56
64628;BME280;59036;50.960;0.314;2022-09-17T10:23:21;100481.48;;;11.42;42.97
64628;BME280;59036;50.960;0.314;2022-09-17T10:25:48;100485.60;;;11.93;42.54
64628;BME280;59036;50.960;0.314;2022-09-17T10:28:33;100478.73;;;13.16;41.69
64628;BME280;59036;50.960;0.314;2022-09-17T10:31:04;100489.07;;;11.34;43.51
64628;BME280;59036;50.960;0.314;2022-09-17T10:33:31;100481.72;;;12.47;43.16
64628;BME280;59036;50.960;0.314;2022-09-17T10:36:02;100481.82;;;11.92;42.93
64628;BME280;59036;50.960;0.314;2022-09-17T10:38:32;100477.44;;;11.33;43.27
64628;BME280;59036;50.960;0.314;2022-09-17T10:41:12;100475.04;;;12.19;43.42
64628;BME280;59036;50.960;0.314;2022-09-17T10:43:40;100481.77;;;12.35;41.33
64628;BME280;59036;50.960;0.314;2022-09-17T10:46:11;100479.31;;;11.77;42.21
64628;BME280;59036;50.960;0.314;2022-09-17T10:48:44;100474.02;;;12.20;41.78
64628;BME280;59036;50.960;0.314;2022-09-17T10:51:21;100476.48;;;11.99;41.68
64628;BME280;59036;50.960;0.314;2022-09-17T10:54:05;100470.97;;;12.42;42.78
64628;BME280;59036;50.960;0.314;2022-09-17T10:56:39;100471.32;;;12.05;41.09
64628;BME280;59036;50.960;0.314;2022-09-17T10:59:23;100471.60;;;11.71;41.87
64628;BME280;59036;50.960;0.314;2022-09-17T11:02:02;100466.65;;;12.08;42.45
64628;BME280;59036;50.960;0.314;2022-09-17T11:04:44;100469.18;;;12.78;42.83
64628;BME280;59036;50.960;0.314;2022-09-17T11:07:32;100460.43;;;13.19;40.76
64628;BME280;59036;50.960;0.314;2022-09-17T11:10:11;100456.72;;;12.78;41.95
64628;BME280;59036;50.960;0.314;2022-09-17T11:12:56;100462.19;;;12.40;41.12
64628;BME280;59036;50.960;0.314;2022-09-17T11:15:37;100459.64;;;12.51;42.12
64628;BME280;59036;50.960;0.314;2022-09-17T11:18:24;100460.52;;;12.42;41.94
64628;BME280;59036;50.960;0.314;2022-09-17T11:21:04;100452.69;;;12.82;41.26
64628;BME280;59036;50.960;0.314;2022-09-17T11:23:53;100453.19;;;12.87;41.77
64628;BME280;59036;50.960;0.314;2022-09-17T11:26:33;100453.88;;;13.71;39.16
64628;BME280;59036;50.960;0.314;2022-09-17T11:29:16;100456.52;;;13.08;39.74
64628;BME280;59036;50.960;0.314;2022-09-17T11:31:57;100450.97;;;13.79;39.04
64628;BME280;59036;50.960;0.314;2022-09-17T11:34:30;100450.73;;;14.10;38.86
64628;BME280;59036;50.960;0.314;2022-09-17T11:37:04;100446.13;;;13.96;38.23
64628;BME280;59036;50.960;0.314;2022-09-17T11:39:40;100440.11;;;13.73;38.07
64628;BME280;59036;50.960;0.314;2022-09-17T11:42:23;100435.41;;;13.01;39.73
64628;BME280;59036;50.960;0.314;2022-09-17T11:44:55;100442.22;;;14.60;38.19
64628;BME280;59036;50.960;0.314;2022-09-17T11:47:29;100440.26;;;14.90;37.54
64628;BME280;59036;50.960;0.314;2022-09-17T11:50:03;100439.83;;;14.36;39.50
64628;BME280;59036;50.960;0.314;2022-09-17T11:52:38;100443.23;;;13.97;38.97
64628;BME280;59036;50.960;0.314;2022-09-17T11:55:19;100440.96;;;14.45;39.34
64628;BME280;59036;50.960;0.314;2022-09-17T11:57:50;100437.79;;;15.09;36.84
64628;BME280;59036;50.960;0.314;2022-09-17T12:00:19;100438.53;;;15.33;37.06
64628;BME280;59036;50.960;0.314;2022-09-17T12:02:51;100444.41;;;15.65;35.26
64628;BME280;59036;50.960;0.314;2022-09-17T12:05:22;100441.88;;;14.95;36.91
64628;BME280;59036;50.960;0.314;2022-09-17T12:07:54;100444.69;;;14.21;37.75
64628;BME280;59036;50.960;0.314;2022-09-17T12:10:34;100437.36;;;14.86;37.14
64628;BME280;59036;50.960;0.314;2022-09-17T12:13:14;100434.50;;;15.38;38.10
64628;BME280;59036;50.960;0.314;2022-09-17T12:15:46;100428.60;;;15.99;35.62
64628;BME280;59036;50.960;0.314;2022-09-17T12:18:29;100427.04;;;16.94;35.04
64628;BME280;59036;50.960;0.314;2022-09-17T12:21:01;100415.92;;;16.59;35.15
64628;BME280;59036;50.960;0.314;2022-09-17T12:23:35;100426.40;;;15.17;35.81
64628;BME280;59036;50.960;0.314;2022-09-17T12:26:13;100426.99;;;14.79;35.62
64628;BME280;59036;50.960;0.314;2022-09-17T12:28:51;100425.48;;;14.12;37.05
64628;BME280;59036;50.960;0.314;2022-09-17T12:31:25;100416.59;;;14.96;37.31
64628;BME280;59036;50.960;0.314;2022-09-17T12:33:56;100416.36;;;14.35;38.17
64628;BME280;59036;50.960;0.314;2022-09-17T12:36:33;100417.06;;;14.11;37.77
64628;BME280;59036;50.960;0.314;2022-09-17T12:41:24;100410.63;;;16.25;36.03
64628;BME280;59036;50.960;0.314;2022-09-17T12:44:05;100401.74;;;15.64;38.24
64628;BME280;59036;50.960;0.314;2022-09-17T12:46:50;100411.85;;;15.65;36.53
64628;BME280;59036;50.960;0.314;2022-09-17T12:49:37;100408.32;;;15.67;35.54
64628;BME280;59036;50.960;0.314;2022-09-17T12:52:11;100402.29;;;15.70;34.90
64628;BME280;59036;50.960;0.314;2022-09-17T12:54:54;100411.24;;;14.59;37.72
64628;BME280;59036;50.960;0.314;2022-09-17T12:57:35;100410.34;;;15.15;37.05
64628;BME280;59036;50.960;0.314;2022-09-17T13:00:09;100410.39;;;14.33;37.34
64628;BME280;59036;50.960;0.314;2022-09-17T13:02:40;100406.07;;;14.72;38.21
64628;BME280;59036;50.960;0.314;2022-09-17T13:07:37;100410.11;;;15.58;36.80
64628;BME280;59036;50.960;0.314;2022-09-17T13:10:39;100407.11;;;15.43;35.92
64628;BME280;59036;50.960;0.314;2022-09-17T13:13:26;100403.39;;;16.36;35.34
64628;BME280;59036;50.960;0.314;2022-09-17T13:16:01;100390.27;;;16.83;35.35
64628;BME280;59036;50.960;0.314;2022-09-17T13:18:35;100398.93;;;15.81;34.21
64628;BME280;59036;50.960;0.314;2022-09-17T13:21:07;100399.14;;;15.53;35.57
64628;BME280;59036;50.960;0.314;2022-09-17T13:23:40;100398.94;;;14.48;36.64
64628;BME280;59036;50.960;0.314;2022-09-17T13:26:09;100396.56;;;15.21;37.17
64628;BME280;59036;50.960;0.314;2022-09-17T13:28:40;100392.22;;;15.72;36.37